createdAt,value
2023-03-16T00:04:41.425Z,96329.78
2023-03-16T00:07:10.832Z,96333.00
2023-03-16T00:09:41.503Z,96321.75
2023-03-16T00:12:19.603Z,96331.13
2023-03-16T00:14:48.683Z,96316.19
2023-03-16T00:17:20.886Z,96307.38
2023-03-16T00:19:56.238Z,96338.47
2023-03-16T00:22:25.829Z,96346.22
2023-03-16T00:24:53.103Z,96318.13
2023-03-16T00:27:23.103Z,96335.28
2023-03-16T00:29:56.408Z,96340.66
2023-03-16T00:32:29.060Z,96366.66
2023-03-16T00:34:56.137Z,96370.41
2023-03-16T00:37:24.919Z,96358.06
2023-03-16T00:39:52.885Z,96351.38
2023-03-16T00:42:20.368Z,96359.41
2023-03-16T00:44:47.211Z,96355.16
2023-03-16T00:47:17.102Z,96354.06
2023-03-16T00:49:44.858Z,96328.91
2023-03-16T00:52:16.347Z,96336.69
2023-03-16T00:54:45.322Z,96356.25
2023-03-16T00:57:14.697Z,96334.28
2023-03-16T00:59:41.749Z,96346.63
2023-03-16T01:02:10.205Z,96342.34
2023-03-16T01:04:37.493Z,96334.31
2023-03-16T01:07:05.464Z,96320.34
2023-03-16T01:09:37.133Z,96345.00
2023-03-16T01:12:10.533Z,96355.44
2023-03-16T01:14:37.923Z,96373.16
2023-03-16T01:17:08.694Z,96350.91
2023-03-16T01:19:38.952Z,96352.53
2023-03-16T01:22:06.638Z,96375.56
2023-03-16T01:24:37.193Z,96389.50
2023-03-16T01:27:05.317Z,96361.66
2023-03-16T01:29:33.515Z,96360.59
2023-03-16T01:32:01.498Z,96378.25
2023-03-16T01:34:28.784Z,96367.53
2023-03-16T01:36:55.638Z,96374.75
2023-03-16T01:39:22.480Z,96400.00
2023-03-16T01:41:49.797Z,96402.91
2023-03-16T01:44:24.509Z,96365.91
2023-03-16T01:46:51.344Z,96393.81
2023-03-16T01:49:20.634Z,96392.75
2023-03-16T01:51:56.443Z,96400.78
2023-03-16T01:54:38.246Z,96401.06
2023-03-16T01:57:13.366Z,96406.69
2023-03-16T01:59:49.311Z,96401.59
2023-03-16T02:02:21.500Z,96408.28
2023-03-16T02:05:07.205Z,96388.97
2023-03-16T02:07:40.930Z,96410.44
2023-03-16T02:10:09.311Z,96404.81
2023-03-16T02:12:36.402Z,96367.78
2023-03-16T02:15:04.530Z,96389.53
2023-03-16T02:17:34.098Z,96394.06
2023-03-16T02:20:26.581Z,96422.75
2023-03-16T02:22:54.550Z,96388.94
2023-03-16T02:25:29.172Z,96424.09
2023-03-16T02:28:15.936Z,96385.19
2023-03-16T02:30:43.264Z,96420.34
2023-03-16T02:33:11.020Z,96403.97
2023-03-16T02:35:37.801Z,96415.22
2023-03-16T02:38:04.718Z,96413.91
2023-03-16T02:40:34.055Z,96410.41
2023-03-16T02:43:02.864Z,96427.06
2023-03-16T02:45:34.958Z,96406.94
2023-03-16T02:48:09.723Z,96417.66
2023-03-16T02:50:37.268Z,96421.13
2023-03-16T02:53:03.930Z,96422.47
2023-03-16T02:55:30.647Z,96449.56
2023-03-16T02:57:57.666Z,96407.19
2023-03-16T03:00:24.473Z,96435.63
2023-03-16T03:02:52.718Z,96411.78
2023-03-16T03:05:19.775Z,96391.63
2023-03-16T03:07:46.693Z,96424.66
2023-03-16T03:10:13.341Z,96438.88
2023-03-16T03:12:40.548Z,96442.63
2023-03-16T03:15:07.970Z,96417.94
2023-03-16T03:17:35.157Z,96432.16
2023-03-16T03:20:14.015Z,96449.31
2023-03-16T03:22:41.108Z,96443.13
2023-03-16T03:25:08.936Z,96423.28
2023-03-16T03:27:36.029Z,96447.69
2023-03-16T03:30:04.239Z,96452.50
2023-03-16T03:32:31.346Z,96463.50
2023-03-16T03:34:58.163Z,96450.88
2023-03-16T03:37:25.813Z,96458.13
2023-03-16T03:39:53.571Z,96460.81
2023-03-16T03:42:20.320Z,96451.69
2023-03-16T03:44:46.979Z,96469.13
2023-03-16T03:47:14.028Z,96443.13
2023-03-16T03:49:41.159Z,96491.94
2023-03-16T03:52:08.067Z,96490.06
2023-03-16T03:54:35.280Z,96498.91
2023-03-16T03:57:01.974Z,96472.84
2023-03-16T03:59:28.774Z,96501.00
2023-03-16T04:01:55.598Z,96480.03
2023-03-16T04:04:22.529Z,96500.16
2023-03-16T04:06:51.195Z,96477.88
2023-03-16T04:09:18.371Z,96510.63
2023-03-16T04:11:45.212Z,96515.47
2023-03-16T04:14:11.912Z,96513.31
2023-03-16T04:16:38.933Z,96503.66
2023-03-16T04:19:05.681Z,96491.28
2023-03-16T04:21:32.409Z,96536.09
2023-03-16T04:23:59.336Z,96530.72
2023-03-16T04:26:26.005Z,96518.34
2023-03-16T04:28:52.923Z,96505.41
2023-03-16T04:31:19.771Z,96519.66
2023-03-16T04:33:46.759Z,96556.13
2023-03-16T04:36:14.110Z,96556.31
2023-03-16T04:38:42.136Z,96566.44
2023-03-16T04:41:11.473Z,96544.66
2023-03-16T04:43:38.577Z,96543.63
2023-03-16T04:46:06.664Z,96568.59
2023-03-16T04:48:33.417Z,96564.53
2023-03-16T04:51:01.524Z,96539.28
2023-03-16T04:53:28.443Z,96554.31
2023-03-16T04:55:55.127Z,96545.66
2023-03-16T04:58:22.894Z,96593.78
2023-03-16T05:00:52.224Z,96559.63
2023-03-16T05:03:19.072Z,96566.28
2023-03-16T05:05:47.365Z,96584.03
2023-03-16T05:08:14.273Z,96596.13
2023-03-16T05:10:41.157Z,96614.84
2023-03-16T05:13:07.969Z,96573.19
2023-03-16T05:15:34.886Z,96606.22
2023-03-16T05:18:01.979Z,96619.09
2023-03-16T05:20:28.804Z,96617.72
2023-03-16T05:22:55.884Z,96619.28
2023-03-16T05:25:23.018Z,96631.28
2023-03-16T05:27:52.209Z,96630.22
2023-03-16T05:30:19.261Z,96638.31
2023-03-16T05:32:46.745Z,96649.84
2023-03-16T05:35:14.338Z,96647.06
2023-03-16T05:37:42.183Z,96608.03
2023-03-16T05:40:17.835Z,96660.16
2023-03-16T05:42:46.561Z,96655.28
2023-03-16T05:45:14.890Z,96636.16
2023-03-16T05:47:42.459Z,96669.25
2023-03-16T05:50:11.672Z,96645.03
2023-03-16T05:52:39.437Z,96659.84
2023-03-16T05:55:08.579Z,96670.66
2023-03-16T05:57:35.547Z,96677.34
2023-03-16T06:00:25.479Z,96692.38
2023-03-16T06:02:52.818Z,96676.19
2023-03-16T06:05:25.305Z,96674.81
2023-03-16T06:07:53.658Z,96683.44
2023-03-16T06:10:20.756Z,96697.13
2023-03-16T06:12:47.670Z,96698.19
2023-03-16T06:15:15.253Z,96689.91
2023-03-16T06:17:42.239Z,96697.63
2023-03-16T06:20:11.590Z,96716.47
2023-03-16T06:22:40.044Z,96709.09
2023-03-16T06:25:08.560Z,96700.75
2023-03-16T06:27:35.731Z,96729.53
2023-03-16T06:30:02.855Z,96728.22
2023-03-16T06:32:29.567Z,96737.09
2023-03-16T06:34:56.634Z,96705.31
2023-03-16T06:37:23.636Z,96740.84
2023-03-16T06:39:50.715Z,96735.72
2023-03-16T06:42:17.390Z,96729.25
2023-03-16T06:44:44.255Z,96703.19
2023-03-16T06:47:11.891Z,96747.63
2023-03-16T06:49:38.651Z,96712.38
2023-03-16T06:52:05.636Z,96740.88
2023-03-16T06:54:37.479Z,96728.75
2023-03-16T06:57:04.416Z,96754.53
2023-03-16T06:59:31.465Z,96723.28
2023-03-16T07:01:58.140Z,96755.03
2023-03-16T07:04:24.920Z,96764.16
2023-03-16T07:06:51.769Z,96751.50
2023-03-16T07:09:18.530Z,96768.72
2023-03-16T07:11:45.325Z,96751.34
2023-03-16T07:14:12.491Z,96751.63
2023-03-16T07:16:39.242Z,96752.06
2023-03-16T07:19:06.080Z,96770.22
2023-03-16T07:21:39.500Z,96786.84
2023-03-16T07:24:07.047Z,96781.56
2023-03-16T07:26:33.782Z,96774.44
2023-03-16T07:29:00.815Z,96784.59
2023-03-16T07:31:27.924Z,96775.16
2023-03-16T07:33:54.943Z,96764.63
2023-03-16T07:36:21.788Z,96804.72
2023-03-16T07:38:48.607Z,96804.88
2023-03-16T07:41:15.414Z,96801.50
2023-03-16T07:43:42.205Z,96795.81
2023-03-16T07:46:09.086Z,96764.03
2023-03-16T07:48:35.911Z,96792.41
2023-03-16T07:51:02.827Z,96791.91
2023-03-16T07:53:29.601Z,96824.25
2023-03-16T07:55:56.546Z,96812.06
2023-03-16T07:58:23.552Z,96809.69
2023-03-16T08:00:50.211Z,96811.09
2023-03-16T08:03:17.055Z,96809.03
2023-03-16T08:05:44.052Z,96829.06
2023-03-16T08:08:10.649Z,96844.72
2023-03-16T08:10:37.406Z,96838.84
2023-03-16T08:13:07.526Z,96809.19
2023-03-16T08:15:35.129Z,96848.28
2023-03-16T08:18:05.712Z,96852.91
2023-03-16T08:20:32.644Z,96850.16
2023-03-16T08:22:59.930Z,96854.81
2023-03-16T08:25:26.740Z,96865.81
2023-03-16T08:27:53.726Z,96850.94
2023-03-16T08:30:22.700Z,96857.59
2023-03-16T08:32:50.651Z,96861.38
2023-03-16T08:35:18.042Z,96868.69
2023-03-16T08:37:46.390Z,96859.78
2023-03-16T08:40:19.612Z,96858.13
2023-03-16T08:42:46.442Z,96882.38
2023-03-16T08:45:14.320Z,96882.91
2023-03-16T08:47:41.862Z,96877.41
2023-03-16T08:50:09.903Z,96884.44
2023-03-16T08:52:36.742Z,96900.56
2023-03-16T08:55:05.913Z,96889.53
2023-03-16T08:57:33.997Z,96880.59
2023-03-16T09:00:01.424Z,96894.66
2023-03-16T09:02:28.614Z,96901.13
2023-03-16T09:04:56.409Z,96924.16
2023-03-16T09:07:23.499Z,96890.06
2023-03-16T09:09:51.565Z,96919.16
2023-03-16T09:12:18.768Z,96939.50
2023-03-16T09:14:46.110Z,96925.75
2023-03-16T09:17:13.133Z,96908.13
2023-03-16T09:19:51.190Z,96918.84
2023-03-16T09:22:20.356Z,96916.75
2023-03-16T09:24:48.557Z,96925.81
2023-03-16T09:27:16.132Z,96944.44
2023-03-16T09:29:44.030Z,96941.88
2023-03-16T09:32:11.171Z,96963.44
2023-03-16T09:34:38.119Z,96963.13
2023-03-16T09:37:05.509Z,96969.59
2023-03-16T09:39:32.247Z,96962.25
2023-03-16T09:42:22.070Z,96962.25
2023-03-16T09:45:26.712Z,96982.75
2023-03-16T09:47:58.666Z,96989.09
2023-03-16T09:50:47.092Z,96981.94
2023-03-16T09:53:29.876Z,96977.56
2023-03-16T09:56:06.001Z,96992.66
2023-03-16T09:58:33.192Z,96993.19
2023-03-16T10:01:37.426Z,96992.22
2023-03-16T10:04:43.384Z,96998.44
2023-03-16T10:07:12.235Z,96993.56
2023-03-16T10:10:09.943Z,96994.72
2023-03-16T10:12:43.604Z,96985.75
2023-03-16T10:15:18.605Z,97006.78
2023-03-16T10:17:50.183Z,97011.91
2023-03-16T10:20:21.339Z,96980.78
2023-03-16T10:22:52.486Z,96993.78
2023-03-16T10:25:42.071Z,96972.69
2023-03-16T10:28:26.263Z,97006.41
2023-03-16T10:30:55.892Z,97017.19
2023-03-16T10:33:33.982Z,96998.25
2023-03-16T10:36:04.091Z,97031.63
2023-03-16T10:38:38.772Z,97030.66
2023-03-16T10:41:23.776Z,97043.28
2023-03-16T10:43:52.029Z,97035.56
2023-03-16T10:46:19.121Z,97015.00
2023-03-16T10:49:02.190Z,97013.50
2023-03-16T10:51:36.626Z,97013.88
2023-03-16T10:54:27.767Z,97001.25
2023-03-16T10:56:55.557Z,97026.72
2023-03-16T10:59:34.531Z,97045.66
2023-03-16T11:02:23.891Z,97037.03
2023-03-16T11:04:51.922Z,97020.88
2023-03-16T11:07:21.043Z,97033.63
2023-03-16T11:09:49.059Z,97030.94
2023-03-16T11:12:24.756Z,97029.81
2023-03-16T11:14:52.145Z,97038.78
2023-03-16T11:17:35.376Z,97032.25
2023-03-16T11:20:12.392Z,97047.19
2023-03-16T11:22:41.049Z,97025.38
2023-03-16T11:25:29.751Z,97027.75
2023-03-16T11:28:17.983Z,97043.72
2023-03-16T11:30:55.547Z,97019.97
2023-03-16T11:33:23.331Z,97040.94
2023-03-16T11:36:31.088Z,97032.59
2023-03-16T11:39:27.772Z,97045.06
2023-03-16T11:42:10.223Z,97054.97
2023-03-16T11:44:48.275Z,97038.22
2023-03-16T11:47:44.243Z,97064.09
2023-03-16T11:50:23.114Z,97054.06
2023-03-16T11:53:05.087Z,97062.97
2023-03-16T11:55:57.809Z,97064.78
2023-03-16T11:58:40.059Z,97072.78
2023-03-16T12:01:13.857Z,97070.31
2023-03-16T12:04:02.265Z,97067.72
2023-03-16T12:07:30.572Z,97065.34
2023-03-16T12:10:24.270Z,97072.19
2023-03-16T12:13:16.529Z,97069.56
2023-03-16T12:15:50.127Z,97069.03
2023-03-16T12:18:22.441Z,97062.56
2023-03-16T12:21:08.367Z,97056.69
2023-03-16T12:24:07.703Z,97075.63
2023-03-16T12:26:39.922Z,97058.91
2023-03-16T12:29:31.594Z,97078.38
2023-03-16T12:32:12.010Z,97074.81
2023-03-16T12:34:55.195Z,97080.03
2023-03-16T12:37:57.191Z,97091.06
2023-03-16T12:40:55.498Z,97087.66
2023-03-16T12:43:25.601Z,97082.81
2023-03-16T12:45:59.541Z,97047.47
2023-03-16T12:48:34.415Z,97062.78
2023-03-16T12:51:03.817Z,97083.25
2023-03-16T12:53:53.312Z,97100.75
2023-03-16T12:56:30.452Z,97091.78
2023-03-16T12:59:03.349Z,97066.53
2023-03-16T13:01:38.550Z,97107.28
2023-03-16T13:04:16.263Z,97077.88
2023-03-16T13:06:50.729Z,97093.53
2023-03-16T13:09:28.197Z,97117.59
2023-03-16T13:11:55.608Z,97073.38
2023-03-16T13:14:44.414Z,97113.66
2023-03-16T13:17:17.597Z,97122.19
2023-03-16T13:19:47.842Z,97117.31
2023-03-16T13:22:28.519Z,97121.59
2023-03-16T13:25:18.162Z,97113.75
2023-03-16T13:27:48.152Z,97125.69
2023-03-16T13:30:24.472Z,97077.94
2023-03-16T13:33:21.214Z,97123.31
2023-03-16T13:35:52.946Z,97139.41
2023-03-16T13:38:31.790Z,97090.31
2023-03-16T13:41:18.693Z,97130.28
2023-03-16T13:43:46.939Z,97128.44
2023-03-16T13:46:18.977Z,97136.72
2023-03-16T13:48:48.373Z,97126.59
2023-03-16T13:51:18.850Z,97128.22
2023-03-16T13:53:45.807Z,97131.69
2023-03-16T13:56:18.307Z,97111.06
2023-03-16T13:58:50.082Z,97127.53
2023-03-16T14:01:26.428Z,97149.94
2023-03-16T14:03:55.356Z,97152.38
2023-03-16T14:06:31.581Z,97145.09
2023-03-16T14:09:05.614Z,97140.53
2023-03-16T14:11:32.770Z,97133.84
2023-03-16T14:14:00.844Z,97156.16
2023-03-16T14:16:32.240Z,97150.16
2023-03-16T14:19:04.355Z,97158.72
2023-03-16T14:21:36.457Z,97169.41
2023-03-16T14:24:06.380Z,97158.53
2023-03-16T14:26:49.433Z,97170.59
2023-03-16T14:29:32.558Z,97172.44
2023-03-16T14:32:00.240Z,97181.03
2023-03-16T14:34:30.274Z,97188.03
2023-03-16T14:37:12.613Z,97181.56
2023-03-16T14:39:42.756Z,97176.69
2023-03-16T14:42:30.611Z,97173.19
2023-03-16T14:44:59.996Z,97184.59
2023-03-16T14:47:30.866Z,97192.91
2023-03-16T14:50:05.168Z,97167.22
2023-03-16T14:52:33.722Z,97189.16
2023-03-16T14:55:10.094Z,97186.94
2023-03-16T14:57:37.048Z,97181.28
2023-03-16T15:00:05.600Z,97182.09
2023-03-16T15:02:33.632Z,97210.75
2023-03-16T15:05:03.026Z,97210.75
2023-03-16T15:07:32.997Z,97184.75
2023-03-16T15:10:23.177Z,97193.66
2023-03-16T15:13:04.396Z,97220.28
2023-03-16T15:15:31.855Z,97238.59
2023-03-16T15:17:59.345Z,97231.28
2023-03-16T15:20:31.945Z,97224.03
2023-03-16T15:22:59.767Z,97246.31
2023-03-16T15:25:37.263Z,97237.47
2023-03-16T15:28:19.104Z,97219.06
2023-03-16T15:30:48.562Z,97238.72
2023-03-16T15:33:15.893Z,97229.56
2023-03-16T15:35:44.296Z,97219.31
2023-03-16T15:38:16.834Z,97246.63
2023-03-16T15:40:46.215Z,97258.44
2023-03-16T15:43:15.153Z,97239.66
2023-03-16T15:45:41.984Z,97252.59
2023-03-16T15:48:11.032Z,97256.88
2023-03-16T15:50:41.022Z,97263.22
2023-03-16T15:53:29.625Z,97266.16
2023-03-16T15:56:09.662Z,97269.41
2023-03-16T15:58:38.288Z,97278.03
2023-03-16T16:01:07.333Z,97276.00
2023-03-16T16:03:34.406Z,97287.63
2023-03-16T16:06:02.076Z,97296.53
2023-03-16T16:08:28.820Z,97291.34
2023-03-16T16:10:56.462Z,97304.06
2023-03-16T16:13:37.526Z,97293.22
2023-03-16T16:16:20.185Z,97313.13
2023-03-16T16:18:48.552Z,97327.63
2023-03-16T16:21:27.598Z,97312.22
2023-03-16T16:23:55.334Z,97303.75
2023-03-16T16:26:48.163Z,97327.78
2023-03-16T16:29:22.961Z,97330.09
2023-03-16T16:31:51.540Z,97303.06
2023-03-16T16:34:28.177Z,97347.78
2023-03-16T16:36:56.446Z,97357.72
2023-03-16T16:39:24.013Z,97336.25
2023-03-16T16:41:52.524Z,97378.84
2023-03-16T16:44:23.565Z,97340.91
2023-03-16T16:46:52.139Z,97372.91
2023-03-16T16:49:30.763Z,97348.97
2023-03-16T16:51:58.496Z,97362.44
2023-03-16T16:54:28.861Z,97377.63
2023-03-16T16:56:58.241Z,97384.66
2023-03-16T16:59:37.470Z,97352.53
2023-03-16T17:02:21.512Z,97400.75
2023-03-16T17:04:50.695Z,97386.50
2023-03-16T17:07:18.163Z,97400.09
2023-03-16T17:09:45.353Z,97352.97
2023-03-16T17:12:21.871Z,97398.69
2023-03-16T17:14:50.090Z,97403.25
2023-03-16T17:17:18.763Z,97416.56
2023-03-16T17:19:47.058Z,97390.56
2023-03-16T17:22:24.789Z,97386.34
2023-03-16T17:24:53.180Z,97403.09
2023-03-16T17:27:27.302Z,97429.50
2023-03-16T17:29:54.748Z,97438.13
2023-03-16T17:32:25.627Z,97396.56
2023-03-16T17:34:52.834Z,97427.53
2023-03-16T17:37:21.185Z,97437.94
2023-03-16T17:39:48.268Z,97440.16
2023-03-16T17:42:18.645Z,97452.97
2023-03-16T17:44:48.054Z,97442.41
2023-03-16T17:47:30.260Z,97460.94
2023-03-16T17:49:57.146Z,97440.03
2023-03-16T17:52:26.347Z,97451.50
2023-03-16T17:54:54.949Z,97462.00
2023-03-16T17:57:27.453Z,97442.72
2023-03-16T17:59:55.004Z,97454.25
2023-03-16T18:02:50.069Z,97475.88
2023-03-16T18:05:32.676Z,97474.50
2023-03-16T18:08:07.363Z,97470.34
2023-03-16T18:10:34.328Z,97490.09
2023-03-16T18:13:05.002Z,97484.16
2023-03-16T18:15:35.049Z,97488.72
2023-03-16T18:18:02.600Z,97482.13
2023-03-16T18:20:34.572Z,97487.50
2023-03-16T18:23:03.599Z,97497.16
2023-03-16T18:25:39.368Z,97506.81
2023-03-16T18:28:08.272Z,97470.28
2023-03-16T18:30:38.545Z,97454.38
2023-03-16T18:33:28.243Z,97507.88
2023-03-16T18:35:57.535Z,97483.06
2023-03-16T18:38:39.480Z,97483.00
2023-03-16T18:41:24.996Z,97522.50
2023-03-16T18:43:53.999Z,97469.13
2023-03-16T18:46:29.027Z,97519.28
2023-03-16T18:48:59.346Z,97485.47
2023-03-16T18:51:27.529Z,97476.66
2023-03-16T18:53:55.076Z,97486.03
2023-03-16T18:56:27.402Z,97484.06
2023-03-16T18:58:56.227Z,97517.78
2023-03-16T19:01:29.623Z,97523.97
2023-03-16T19:03:57.964Z,97491.06
2023-03-16T19:06:37.491Z,97539.31
2023-03-16T19:09:13.390Z,97534.78
2023-03-16T19:11:43.603Z,97499.69
2023-03-16T19:14:20.649Z,97536.31
2023-03-16T19:16:47.921Z,97534.09
2023-03-16T19:19:15.576Z,97532.06
2023-03-16T19:21:43.221Z,97540.44
2023-03-16T19:24:22.092Z,97498.81
2023-03-16T19:26:49.059Z,97545.44
2023-03-16T19:29:16.062Z,97532.78
2023-03-16T19:31:43.002Z,97529.75
2023-03-16T19:34:18.232Z,97540.81
2023-03-16T19:36:45.850Z,97512.16
2023-03-16T19:39:14.555Z,97529.63
2023-03-16T19:41:41.437Z,97536.41
2023-03-16T19:44:16.124Z,97551.75
2023-03-16T19:46:45.271Z,97532.78
2023-03-16T19:49:19.878Z,97561.66
2023-03-16T19:51:48.033Z,97528.53
2023-03-16T19:54:35.227Z,97526.06
2023-03-16T19:57:07.554Z,97544.94
2023-03-16T19:59:35.559Z,97577.16
2023-03-16T20:02:02.848Z,97565.66
2023-03-16T20:04:30.416Z,97544.25
2023-03-16T20:06:57.357Z,97539.47
2023-03-16T20:09:24.301Z,97564.88
2023-03-16T20:11:52.479Z,97580.69
2023-03-16T20:14:27.135Z,97570.56
2023-03-16T20:16:55.141Z,97594.66
2023-03-16T20:19:23.167Z,97569.28
2023-03-16T20:21:50.100Z,97585.00
2023-03-16T20:24:19.267Z,97604.22
2023-03-16T20:26:48.016Z,97598.66
2023-03-16T20:29:35.915Z,97610.78
2023-03-16T20:32:06.853Z,97599.00
2023-03-16T20:34:33.693Z,97576.75
2023-03-16T20:37:00.602Z,97589.91
2023-03-16T20:39:27.946Z,97614.47
2023-03-16T20:41:54.798Z,97566.41
2023-03-16T20:44:25.333Z,97588.31
2023-03-16T20:46:52.333Z,97622.50
2023-03-16T20:49:22.115Z,97621.69
2023-03-16T20:51:50.240Z,97617.66
2023-03-16T20:54:17.764Z,97588.41
2023-03-16T20:56:44.683Z,97598.69
2023-03-16T20:59:20.534Z,97593.78
2023-03-16T21:01:48.131Z,97617.75
2023-03-16T21:04:22.586Z,97594.34
2023-03-16T21:06:51.080Z,97612.88
2023-03-16T21:09:19.656Z,97618.22
2023-03-16T21:11:47.644Z,97624.41
2023-03-16T21:14:21.021Z,97603.31
2023-03-16T21:16:47.919Z,97595.63
2023-03-16T21:19:17.285Z,97646.63
2023-03-16T21:21:44.401Z,97618.94
2023-03-16T21:24:11.710Z,97650.38
2023-03-16T21:26:40.016Z,97609.25
2023-03-16T21:29:13.595Z,97651.06
2023-03-16T21:31:41.262Z,97648.59
2023-03-16T21:34:23.931Z,97643.16
2023-03-16T21:36:50.967Z,97656.28
2023-03-16T21:39:22.446Z,97649.56
2023-03-16T21:41:50.811Z,97635.31
2023-03-16T21:44:18.527Z,97661.09
2023-03-16T21:46:47.321Z,97647.09
2023-03-16T21:49:14.903Z,97657.81
2023-03-16T21:51:43.366Z,97623.44
2023-03-16T21:54:19.438Z,97635.56
2023-03-16T21:56:47.922Z,97654.06
2023-03-16T21:59:15.629Z,97641.63
2023-03-16T22:01:58.652Z,97630.06
2023-03-16T22:04:28.780Z,97681.00
2023-03-16T22:06:55.584Z,97655.56
2023-03-16T22:09:22.768Z,97660.81
2023-03-16T22:11:49.931Z,97630.19
2023-03-16T22:14:16.620Z,97673.50
2023-03-16T22:16:43.855Z,97658.16
2023-03-16T22:19:14.762Z,97676.88
2023-03-16T22:21:43.891Z,97670.47
2023-03-16T22:24:19.528Z,97638.16
2023-03-16T22:26:47.654Z,97677.78
2023-03-16T22:29:25.532Z,97668.59
2023-03-16T22:31:56.561Z,97669.03
2023-03-16T22:34:29.349Z,97674.53
2023-03-16T22:36:57.580Z,97675.44
2023-03-16T22:39:24.485Z,97681.72
2023-03-16T22:41:52.115Z,97662.59
2023-03-16T22:44:22.762Z,97689.81
2023-03-16T22:46:50.378Z,97660.34
2023-03-16T22:49:27.869Z,97647.38
2023-03-16T22:51:57.478Z,97693.53
2023-03-16T22:54:27.396Z,97663.66
2023-03-16T22:56:55.157Z,97665.59
2023-03-16T22:59:25.130Z,97685.84
2023-03-16T23:01:51.960Z,97684.53
2023-03-16T23:04:24.869Z,97701.66
2023-03-16T23:06:55.158Z,97708.06
2023-03-16T23:09:22.453Z,97670.97
2023-03-16T23:11:55.288Z,97711.63
2023-03-16T23:14:24.456Z,97674.84
2023-03-16T23:16:55.480Z,97705.41
2023-03-16T23:19:32.500Z,97732.28
2023-03-16T23:22:05.079Z,97721.53
2023-03-16T23:24:36.211Z,97695.59
2023-03-16T23:27:04.610Z,97738.16
2023-03-16T23:29:31.896Z,97734.88
2023-03-16T23:31:59.141Z,97734.97
2023-03-16T23:34:26.458Z,97718.66
2023-03-16T23:36:55.196Z,97702.66
2023-03-16T23:39:22.309Z,97741.47
2023-03-16T23:41:50.299Z,97744.75
2023-03-16T23:44:23.525Z,97747.66
2023-03-16T23:46:51.548Z,97721.78
2023-03-16T23:49:27.935Z,97709.91
2023-03-16T23:51:56.984Z,97716.50
2023-03-16T23:54:26.548Z,97752.53
2023-03-16T23:56:54.826Z,97741.97
2023-03-16T23:59:23.505Z,97728.16
